sensor_id;sensor_type;location;lat;lon;timestamp;temperature;humidity
26691;DHT22;14307;51.718;8.938;2023-02-19T00:01:19;8.60;99.90
26691;DHT22;14307;51.718;8.938;2023-02-19T00:03:51;8.60;99.90
26691;DHT22;14307;51.718;8.938;2023-02-19T00:06:19;8.60;99.90
26691;DHT22;14307;51.718;8.938;2023-02-19T00:08:46;8.60;99.90
26691;DHT22;14307;51.718;8.938;2023-02-19T00:11:18;8.60;99.90
26691;DHT22;14307;51.718;8.938;2023-02-19T00:13:47;8.70;99.90
26691;DHT22;14307;51.718;8.938;2023-02-19T00:16:17;8.70;99.90
26691;DHT22;14307;51.718;8.938;2023-02-19T00:18:44;8.60;99.90
26691;DHT22;14307;51.718;8.938;2023-02-19T00:21:12;8.70;99.90
26691;DHT22;14307;51.718;8.938;2023-02-19T00:23:39;8.70;99.90
26691;DHT22;14307;51.718;8.938;2023-02-19T00:26:11;8.70;99.90
26691;DHT22;14307;51.718;8.938;2023-02-19T00:28:47;8.70;99.90
26691;DHT22;14307;51.718;8.938;2023-02-19T00:33:43;8.80;99.90
26691;DHT22;14307;51.718;8.938;2023-02-19T00:36:10;8.70;99.90
26691;DHT22;14307;51.718;8.938;2023-02-19T00:38:38;8.70;99.90
26691;DHT22;14307;51.718;8.938;2023-02-19T00:41:06;8.70;99.90
26691;DHT22;14307;51.718;8.938;2023-02-19T00:43:57;8.70;99.90
26691;DHT22;14307;51.718;8.938;2023-02-19T00:46:37;8.80;99.90
26691;DHT22;14307;51.718;8.938;2023-02-19T00:49:06;8.80;99.90
26691;DHT22;14307;51.718;8.938;2023-02-19T00:51:35;8.80;99.90
26691;DHT22;14307;51.718;8.938;2023-02-19T00:54:03;8.80;99.90
26691;DHT22;14307;51.718;8.938;2023-02-19T00:56:32;8.80;99.90
26691;DHT22;14307;51.718;8.938;2023-02-19T00:58:59;8.80;99.90
26691;DHT22;14307;51.718;8.938;2023-02-19T01:01:26;8.80;99.90
26691;DHT22;14307;51.718;8.938;2023-02-19T01:03:53;8.80;99.90
26691;DHT22;14307;51.718;8.938;2023-02-19T01:06:22;8.80;99.90
26691;DHT22;14307;51.718;8.938;2023-02-19T01:08:49;8.90;99.90
26691;DHT22;14307;51.718;8.938;2023-02-19T01:11:24;8.90;99.90
26691;DHT22;14307;51.718;8.938;2023-02-19T01:13:50;8.90;99.90
26691;DHT22;14307;51.718;8.938;2023-02-19T01:16:21;8.80;99.90
26691;DHT22;14307;51.718;8.938;2023-02-19T01:18:50;8.90;99.90
26691;DHT22;14307;51.718;8.938;2023-02-19T01:21:22;8.90;99.90
26691;DHT22;14307;51.718;8.938;2023-02-19T01:23:50;8.90;99.90
26691;DHT22;14307;51.718;8.938;2023-02-19T01:26:23;8.90;99.90
26691;DHT22;14307;51.718;8.938;2023-02-19T01:28:51;8.90;99.90
26691;DHT22;14307;51.718;8.938;2023-02-19T01:31:21;8.90;99.90
26691;DHT22;14307;51.718;8.938;2023-02-19T01:33:54;8.90;99.90
26691;DHT22;14307;51.718;8.938;2023-02-19T01:36:21;8.90;99.90
26691;DHT22;14307;51.718;8.938;2023-02-19T01:38:48;8.90;99.90
26691;DHT22;14307;51.718;8.938;2023-02-19T01:41:18;8.90;99.90
26691;DHT22;14307;51.718;8.938;2023-02-19T01:46:39;9.00;99.90
26691;DHT22;14307;51.718;8.938;2023-02-19T01:49:19;8.90;99.90
26691;DHT22;14307;51.718;8.938;2023-02-19T01:52:02;8.90;99.90
26691;DHT22;14307;51.718;8.938;2023-02-19T01:54:32;8.90;99.90
26691;DHT22;14307;51.718;8.938;2023-02-19T01:57:03;8.90;99.90
26691;DHT22;14307;51.718;8.938;2023-02-19T01:59:32;8.90;99.90
26691;DHT22;14307;51.718;8.938;2023-02-19T02:01:59;8.80;99.90
26691;DHT22;14307;51.718;8.938;2023-02-19T02:04:30;8.90;99.90
26691;DHT22;14307;51.718;8.938;2023-02-19T02:06:59;8.90;99.90
26691;DHT22;14307;51.718;8.938;2023-02-19T02:09:28;8.90;99.90
26691;DHT22;14307;51.718;8.938;2023-02-19T02:12:14;8.90;99.90
26691;DHT22;14307;51.718;8.938;2023-02-19T02:14:44;8.90;99.90
26691;DHT22;14307;51.718;8.938;2023-02-19T02:17:25;8.90;99.90
26691;DHT22;14307;51.718;8.938;2023-02-19T02:22:54;8.90;99.90
26691;DHT22;14307;51.718;8.938;2023-02-19T02:30:49;8.90;99.90
26691;DHT22;14307;51.718;8.938;2023-02-19T02:35:59;8.90;99.90
26691;DHT22;14307;51.718;8.938;2023-02-19T02:38:31;8.90;99.90
26691;DHT22;14307;51.718;8.938;2023-02-19T02:40:58;8.80;99.90
26691;DHT22;14307;51.718;8.938;2023-02-19T02:43:25;8.80;99.90
26691;DHT22;14307;51.718;8.938;2023-02-19T02:45:53;8.80;99.90
26691;DHT22;14307;51.718;8.938;2023-02-19T02:53:58;8.80;99.90
26691;DHT22;14307;51.718;8.938;2023-02-19T02:56:47;8.80;99.90
26691;DHT22;14307;51.718;8.938;2023-02-19T02:59:17;8.80;99.90
26691;DHT22;14307;51.718;8.938;2023-02-19T03:01:53;8.90;99.90
26691;DHT22;14307;51.718;8.938;2023-02-19T03:05:02;8.80;99.90
26691;DHT22;14307;51.718;8.938;2023-02-19T03:07:53;8.80;99.90
26691;DHT22;14307;51.718;8.938;2023-02-19T03:10:32;8.80;99.90
26691;DHT22;14307;51.718;8.938;2023-02-19T03:13:03;8.80;99.90
26691;DHT22;14307;51.718;8.938;2023-02-19T03:15:57;8.80;99.90
26691;DHT22;14307;51.718;8.938;2023-02-19T03:18:47;8.80;99.90
26691;DHT22;14307;51.718;8.938;2023-02-19T03:21:35;8.80;99.90
26691;DHT22;14307;51.718;8.938;2023-02-19T03:24:08;8.80;99.90
26691;DHT22;14307;51.718;8.938;2023-02-19T03:26:56;8.70;99.90
26691;DHT22;14307;51.718;8.938;2023-02-19T03:29:30;8.80;99.90
26691;DHT22;14307;51.718;8.938;2023-02-19T03:32:05;8.70;99.90
26691;DHT22;14307;51.718;8.938;2023-02-19T03:34:38;8.80;99.90
26691;DHT22;14307;51.718;8.938;2023-02-19T03:37:25;8.70;99.90
26691;DHT22;14307;51.718;8.938;2023-02-19T03:39:55;8.70;99.90
26691;DHT22;14307;51.718;8.938;2023-02-19T03:48:23;8.70;99.90
26691;DHT22;14307;51.718;8.938;2023-02-19T03:50:57;8.60;99.90
26691;DHT22;14307;51.718;8.938;2023-02-19T03:53:30;8.60;99.90
26691;DHT22;14307;51.718;8.938;2023-02-19T03:59:10;8.60;99.90
26691;DHT22;14307;51.718;8.938;2023-02-19T04:04:33;8.60;99.90
26691;DHT22;14307;51.718;8.938;2023-02-19T04:07:00;8.60;99.90
26691;DHT22;14307;51.718;8.938;2023-02-19T04:09:36;8.60;99.90
26691;DHT22;14307;51.718;8.938;2023-02-19T04:12:09;8.60;99.90
26691;DHT22;14307;51.718;8.938;2023-02-19T04:14:44;8.60;99.90
26691;DHT22;14307;51.718;8.938;2023-02-19T04:17:33;8.70;99.90
26691;DHT22;14307;51.718;8.938;2023-02-19T04:20:04;8.60;99.90
26691;DHT22;14307;51.718;8.938;2023-02-19T04:22:34;8.50;99.90
26691;DHT22;14307;51.718;8.938;2023-02-19T04:25:02;8.50;99.90
26691;DHT22;14307;51.718;8.938;2023-02-19T04:27:29;8.50;99.90
26691;DHT22;14307;51.718;8.938;2023-02-19T04:29:55;8.40;99.90
26691;DHT22;14307;51.718;8.938;2023-02-19T04:32:26;8.30;99.90
26691;DHT22;14307;51.718;8.938;2023-02-19T04:34:53;8.30;99.90
26691;DHT22;14307;51.718;8.938;2023-02-19T04:37:20;8.30;99.90
26691;DHT22;14307;51.718;8.938;2023-02-19T04:39:46;8.30;99.90
26691;DHT22;14307;51.718;8.938;2023-02-19T04:42:13;8.30;99.90
26691;DHT22;14307;51.718;8.938;2023-02-19T04:44:40;8.30;99.90
26691;DHT22;14307;51.718;8.938;2023-02-19T04:47:07;8.30;99.90
26691;DHT22;14307;51.718;8.938;2023-02-19T04:49:33;8.20;99.90
26691;DHT22;14307;51.718;8.938;2023-02-19T04:52:00;8.20;99.90
26691;DHT22;14307;51.718;8.938;2023-02-19T04:54:27;8.20;99.90
26691;DHT22;14307;51.718;8.938;2023-02-19T04:56:53;8.30;99.90
26691;DHT22;14307;51.718;8.938;2023-02-19T04:59:20;8.20;99.90
26691;DHT22;14307;51.718;8.938;2023-02-19T05:01:47;8.20;99.90
26691;DHT22;14307;51.718;8.938;2023-02-19T05:04:14;8.30;99.90
26691;DHT22;14307;51.718;8.938;2023-02-19T05:06:41;8.20;99.90
26691;DHT22;14307;51.718;8.938;2023-02-19T05:09:07;8.20;99.90
26691;DHT22;14307;51.718;8.938;2023-02-19T05:11:34;8.20;99.90
26691;DHT22;14307;51.718;8.938;2023-02-19T05:14:01;8.20;99.90
26691;DHT22;14307;51.718;8.938;2023-02-19T05:16:28;8.20;99.90
26691;DHT22;14307;51.718;8.938;2023-02-19T05:18:55;8.20;99.90
26691;DHT22;14307;51.718;8.938;2023-02-19T05:21:24;8.20;99.90
26691;DHT22;14307;51.718;8.938;2023-02-19T05:23:51;8.20;99.90
26691;DHT22;14307;51.718;8.938;2023-02-19T05:26:21;8.20;99.90
26691;DHT22;14307;51.718;8.938;2023-02-19T05:28:50;8.20;99.90
26691;DHT22;14307;51.718;8.938;2023-02-19T05:31:18;8.10;99.90
26691;DHT22;14307;51.718;8.938;2023-02-19T05:33:45;8.20;99.90
26691;DHT22;14307;51.718;8.938;2023-02-19T05:36:16;8.20;99.90
26691;DHT22;14307;51.718;8.938;2023-02-19T05:38:43;8.20;99.90
26691;DHT22;14307;51.718;8.938;2023-02-19T05:41:12;8.20;99.90
26691;DHT22;14307;51.718;8.938;2023-02-19T05:43:39;8.20;99.90
26691;DHT22;14307;51.718;8.938;2023-02-19T05:46:07;8.10;99.90
26691;DHT22;14307;51.718;8.938;2023-02-19T05:48:34;8.10;99.90
26691;DHT22;14307;51.718;8.938;2023-02-19T05:51:06;8.10;99.90
26691;DHT22;14307;51.718;8.938;2023-02-19T05:53:34;8.10;99.90
26691;DHT22;14307;51.718;8.938;2023-02-19T05:56:01;8.10;99.90
26691;DHT22;14307;51.718;8.938;2023-02-19T05:58:28;8.10;99.90
26691;DHT22;14307;51.718;8.938;2023-02-19T06:00:55;8.10;99.90
26691;DHT22;14307;51.718;8.938;2023-02-19T06:03:22;8.10;99.90
26691;DHT22;14307;51.718;8.938;2023-02-19T06:05:49;8.10;99.90
26691;DHT22;14307;51.718;8.938;2023-02-19T06:08:15;8.10;99.90
26691;DHT22;14307;51.718;8.938;2023-02-19T06:10:42;8.10;99.90
26691;DHT22;14307;51.718;8.938;2023-02-19T06:13:09;8.10;99.90
26691;DHT22;14307;51.718;8.938;2023-02-19T06:15:36;8.10;99.90
26691;DHT22;14307;51.718;8.938;2023-02-19T06:18:04;8.10;99.90
26691;DHT22;14307;51.718;8.938;2023-02-19T06:20:30;8.00;99.90
26691;DHT22;14307;51.718;8.938;2023-02-19T06:23:00;8.10;99.90
26691;DHT22;14307;51.718;8.938;2023-02-19T06:25:27;8.00;99.90
26691;DHT22;14307;51.718;8.938;2023-02-19T06:27:53;8.00;99.90
26691;DHT22;14307;51.718;8.938;2023-02-19T06:30:20;8.00;99.90
26691;DHT22;14307;51.718;8.938;2023-02-19T06:32:47;8.00;99.90
26691;DHT22;14307;51.718;8.938;2023-02-19T06:35:16;8.00;99.90
26691;DHT22;14307;51.718;8.938;2023-02-19T06:37:45;7.90;99.90
26691;DHT22;14307;51.718;8.938;2023-02-19T06:40:12;7.90;99.90
26691;DHT22;14307;51.718;8.938;2023-02-19T06:42:39;7.90;99.90
26691;DHT22;14307;51.718;8.938;2023-02-19T06:45:06;7.90;99.90
26691;DHT22;14307;51.718;8.938;2023-02-19T06:47:33;7.90;99.90
26691;DHT22;14307;51.718;8.938;2023-02-19T06:49:59;7.90;99.90
26691;DHT22;14307;51.718;8.938;2023-02-19T06:52:26;7.90;99.90
26691;DHT22;14307;51.718;8.938;2023-02-19T06:54:53;7.90;99.90
26691;DHT22;14307;51.718;8.938;2023-02-19T06:57:20;7.90;99.90
26691;DHT22;14307;51.718;8.938;2023-02-19T06:59:46;7.90;99.90
26691;DHT22;14307;51.718;8.938;2023-02-19T07:02:13;7.80;99.90
26691;DHT22;14307;51.718;8.938;2023-02-19T07:04:40;7.80;99.90
26691;DHT22;14307;51.718;8.938;2023-02-19T07:07:10;7.80;99.90
26691;DHT22;14307;51.718;8.938;2023-02-19T07:09:37;7.80;99.90
26691;DHT22;14307;51.718;8.938;2023-02-19T07:12:04;7.80;99.90
26691;DHT22;14307;51.718;8.938;2023-02-19T07:14:31;7.80;99.90
26691;DHT22;14307;51.718;8.938;2023-02-19T07:16:57;7.80;99.90
26691;DHT22;14307;51.718;8.938;2023-02-19T07:19:24;7.80;99.90
26691;DHT22;14307;51.718;8.938;2023-02-19T07:21:51;7.80;99.90
26691;DHT22;14307;51.718;8.938;2023-02-19T07:24:17;7.90;99.90
26691;DHT22;14307;51.718;8.938;2023-02-19T07:26:46;7.90;99.90
26691;DHT22;14307;51.718;8.938;2023-02-19T07:29:13;7.90;99.90
26691;DHT22;14307;51.718;8.938;2023-02-19T07:31:40;7.90;99.90
26691;DHT22;14307;51.718;8.938;2023-02-19T07:34:08;7.90;99.90
26691;DHT22;14307;51.718;8.938;2023-02-19T07:36:36;7.90;99.90
26691;DHT22;14307;51.718;8.938;2023-02-19T07:39:03;7.90;99.90
26691;DHT22;14307;51.718;8.938;2023-02-19T07:41:30;7.90;99.90
26691;DHT22;14307;51.718;8.938;2023-02-19T07:43:57;7.90;99.90
26691;DHT22;14307;51.718;8.938;2023-02-19T07:46:24;7.90;99.90
26691;DHT22;14307;51.718;8.938;2023-02-19T07:48:51;7.90;99.90
26691;DHT22;14307;51.718;8.938;2023-02-19T07:51:19;7.90;99.90
26691;DHT22;14307;51.718;8.938;2023-02-19T07:53:47;7.90;99.90
26691;DHT22;14307;51.718;8.938;2023-02-19T07:56:16;7.90;99.90
26691;DHT22;14307;51.718;8.938;2023-02-19T07:58:43;7.90;99.90
26691;DHT22;14307;51.718;8.938;2023-02-19T08:01:20;7.70;99.90
26691;DHT22;14307;51.718;8.938;2023-02-19T08:04:11;7.40;99.90
26691;DHT22;14307;51.718;8.938;2023-02-19T08:06:38;7.20;99.90
26691;DHT22;14307;51.718;8.938;2023-02-19T08:09:05;7.10;99.90
26691;DHT22;14307;51.718;8.938;2023-02-19T08:11:35;7.00;99.90
26691;DHT22;14307;51.718;8.938;2023-02-19T08:14:25;6.90;99.90
26691;DHT22;14307;51.718;8.938;2023-02-19T08:16:52;6.70;99.90
26691;DHT22;14307;51.718;8.938;2023-02-19T08:19:20;6.60;99.90
26691;DHT22;14307;51.718;8.938;2023-02-19T08:21:46;6.40;99.90
26691;DHT22;14307;51.718;8.938;2023-02-19T08:24:16;6.30;99.90
26691;DHT22;14307;51.718;8.938;2023-02-19T08:26:43;6.30;99.90
26691;DHT22;14307;51.718;8.938;2023-02-19T08:29:09;6.30;99.90
26691;DHT22;14307;51.718;8.938;2023-02-19T08:31:36;6.30;99.90
26691;DHT22;14307;51.718;8.938;2023-02-19T08:34:03;6.10;99.90
26691;DHT22;14307;51.718;8.938;2023-02-19T08:36:30;6.10;99.90
26691;DHT22;14307;51.718;8.938;2023-02-19T08:38:59;6.10;99.90
26691;DHT22;14307;51.718;8.938;2023-02-19T08:41:26;6.10;99.90
26691;DHT22;14307;51.718;8.938;2023-02-19T08:43:53;6.10;99.90
26691;DHT22;14307;51.718;8.938;2023-02-19T08:46:20;6.20;99.90
26691;DHT22;14307;51.718;8.938;2023-02-19T08:48:48;6.20;99.90
26691;DHT22;14307;51.718;8.938;2023-02-19T08:51:14;6.20;99.90
26691;DHT22;14307;51.718;8.938;2023-02-19T08:53:41;6.10;99.90
26691;DHT22;14307;51.718;8.938;2023-02-19T08:56:11;6.00;99.90
26691;DHT22;14307;51.718;8.938;2023-02-19T08:58:38;6.00;99.90
26691;DHT22;14307;51.718;8.938;2023-02-19T09:01:09;6.00;99.90
26691;DHT22;14307;51.718;8.938;2023-02-19T09:03:37;6.00;99.90
26691;DHT22;14307;51.718;8.938;2023-02-19T09:06:04;6.00;99.90
26691;DHT22;14307;51.718;8.938;2023-02-19T09:08:31;6.00;99.90
26691;DHT22;14307;51.718;8.938;2023-02-19T09:11:03;5.90;99.90
26691;DHT22;14307;51.718;8.938;2023-02-19T09:13:30;5.80;99.90
26691;DHT22;14307;51.718;8.938;2023-02-19T09:15:57;5.80;99.90
26691;DHT22;14307;51.718;8.938;2023-02-19T09:18:24;5.80;99.90
26691;DHT22;14307;51.718;8.938;2023-02-19T09:20:51;5.70;99.90
26691;DHT22;14307;51.718;8.938;2023-02-19T09:23:18;5.80;99.90
26691;DHT22;14307;51.718;8.938;2023-02-19T09:25:45;5.80;99.90
26691;DHT22;14307;51.718;8.938;2023-02-19T09:28:12;5.80;99.90
26691;DHT22;14307;51.718;8.938;2023-02-19T09:30:38;6.00;99.90
26691;DHT22;14307;51.718;8.938;2023-02-19T09:33:06;6.10;99.90
26691;DHT22;14307;51.718;8.938;2023-02-19T09:35:33;6.20;99.90
26691;DHT22;14307;51.718;8.938;2023-02-19T09:38:00;6.20;99.90
26691;DHT22;14307;51.718;8.938;2023-02-19T09:40:28;6.20;99.90
26691;DHT22;14307;51.718;8.938;2023-02-19T09:42:55;6.20;99.90
26691;DHT22;14307;51.718;8.938;2023-02-19T09:45:24;6.20;99.90
26691;DHT22;14307;51.718;8.938;2023-02-19T09:47:56;6.30;99.90
26691;DHT22;14307;51.718;8.938;2023-02-19T09:50:46;6.30;99.90
26691;DHT22;14307;51.718;8.938;2023-02-19T09:53:18;6.30;99.90
26691;DHT22;14307;51.718;8.938;2023-02-19T09:55:47;6.40;99.90
26691;DHT22;14307;51.718;8.938;2023-02-19T09:59:03;6.40;99.90
26691;DHT22;14307;51.718;8.938;2023-02-19T10:01:11;6.40;99.90
26691;DHT22;14307;51.718;8.938;2023-02-19T10:03:43;6.50;99.90
26691;DHT22;14307;51.718;8.938;2023-02-19T10:06:25;6.50;99.90
26691;DHT22;14307;51.718;8.938;2023-02-19T10:08:55;6.40;99.90
26691;DHT22;14307;51.718;8.938;2023-02-19T10:11:25;6.40;99.90
26691;DHT22;14307;51.718;8.938;2023-02-19T10:14:02;6.40;99.90
26691;DHT22;14307;51.718;8.938;2023-02-19T10:16:30;6.30;99.90
26691;DHT22;14307;51.718;8.938;2023-02-19T10:18:56;6.40;99.90
26691;DHT22;14307;51.718;8.938;2023-02-19T10:21:25;6.30;99.90
26691;DHT22;14307;51.718;8.938;2023-02-19T10:23:54;6.30;99.90
26691;DHT22;14307;51.718;8.938;2023-02-19T10:26:23;6.30;99.90
26691;DHT22;14307;51.718;8.938;2023-02-19T10:28:50;6.30;99.90
26691;DHT22;14307;51.718;8.938;2023-02-19T10:31:19;6.40;99.90
26691;DHT22;14307;51.718;8.938;2023-02-19T10:33:55;6.40;99.90
26691;DHT22;14307;51.718;8.938;2023-02-19T10:36:31;6.30;99.90
26691;DHT22;14307;51.718;8.938;2023-02-19T10:41:50;6.20;99.90
26691;DHT22;14307;51.718;8.938;2023-02-19T10:44:28;6.20;99.90
26691;DHT22;14307;51.718;8.938;2023-02-19T10:46:58;6.30;99.90
26691;DHT22;14307;51.718;8.938;2023-02-19T10:49:37;6.30;99.90
26691;DHT22;14307;51.718;8.938;2023-02-19T10:54:45;6.60;99.90
26691;DHT22;14307;51.718;8.938;2023-02-19T10:57:21;6.50;99.90
26691;DHT22;14307;51.718;8.938;2023-02-19T11:00:24;6.60;99.90
26691;DHT22;14307;51.718;8.938;2023-02-19T11:03:19;6.70;99.90
26691;DHT22;14307;51.718;8.938;2023-02-19T11:06:01;6.70;99.90
26691;DHT22;14307;51.718;8.938;2023-02-19T11:08:29;6.70;99.90
26691;DHT22;14307;51.718;8.938;2023-02-19T11:10:56;6.70;99.90
26691;DHT22;14307;51.718;8.938;2023-02-19T11:13:27;6.90;99.90
26691;DHT22;14307;51.718;8.938;2023-02-19T11:15:56;6.70;99.90
26691;DHT22;14307;51.718;8.938;2023-02-19T11:18:28;6.60;99.90
26691;DHT22;14307;51.718;8.938;2023-02-19T11:21:04;6.70;99.90
26691;DHT22;14307;51.718;8.938;2023-02-19T11:26:04;7.20;99.90
26691;DHT22;14307;51.718;8.938;2023-02-19T11:28:35;7.20;99.90
26691;DHT22;14307;51.718;8.938;2023-02-19T11:36:35;7.10;99.90
26691;DHT22;14307;51.718;8.938;2023-02-19T11:39:20;7.00;99.90
26691;DHT22;14307;51.718;8.938;2023-02-19T11:42:11;6.80;99.90
26691;DHT22;14307;51.718;8.938;2023-02-19T12:08:25;6.40;99.90
26691;DHT22;14307;51.718;8.938;2023-02-19T12:14:12;6.60;99.90
26691;DHT22;14307;51.718;8.938;2023-02-19T12:22:03;6.80;99.90
26691;DHT22;14307;51.718;8.938;2023-02-19T12:27:14;6.90;99.90
26691;DHT22;14307;51.718;8.938;2023-02-19T12:30:34;7.00;99.90
26691;DHT22;14307;51.718;8.938;2023-02-19T12:36:09;7.30;99.90
26691;DHT22;14307;51.718;8.938;2023-02-19T12:38:44;7.10;99.90
26691;DHT22;14307;51.718;8.938;2023-02-19T12:41:24;7.30;99.90
26691;DHT22;14307;51.718;8.938;2023-02-19T12:44:00;7.40;99.90
26691;DHT22;14307;51.718;8.938;2023-02-19T12:46:31;7.30;99.90
26691;DHT22;14307;51.718;8.938;2023-02-19T12:49:29;7.30;99.90
26691;DHT22;14307;51.718;8.938;2023-02-19T12:52:24;7.40;99.90
26691;DHT22;14307;51.718;8.938;2023-02-19T12:54:53;7.60;99.90
26691;DHT22;14307;51.718;8.938;2023-02-19T12:57:31;7.30;99.90
26691;DHT22;14307;51.718;8.938;2023-02-19T13:05:52;7.30;99.90
26691;DHT22;14307;51.718;8.938;2023-02-19T13:14:11;7.00;99.90
26691;DHT22;14307;51.718;8.938;2023-02-19T13:16:29;7.20;99.90
26691;DHT22;14307;51.718;8.938;2023-02-19T13:19:00;7.20;99.90
26691;DHT22;14307;51.718;8.938;2023-02-19T13:21:33;7.30;99.90
26691;DHT22;14307;51.718;8.938;2023-02-19T13:24:27;7.40;99.90
26691;DHT22;14307;51.718;8.938;2023-02-19T13:35:20;7.20;99.90
26691;DHT22;14307;51.718;8.938;2023-02-19T13:37:48;7.00;99.90
26691;DHT22;14307;51.718;8.938;2023-02-19T13:40:20;7.00;99.90
26691;DHT22;14307;51.718;8.938;2023-02-19T13:42:56;7.20;99.90
26691;DHT22;14307;51.718;8.938;2023-02-19T13:48:31;7.10;99.90
26691;DHT22;14307;51.718;8.938;2023-02-19T13:53:57;7.30;99.90
26691;DHT22;14307;51.718;8.938;2023-02-19T14:14:37;8.00;99.90
26691;DHT22;14307;51.718;8.938;2023-02-19T14:28:40;8.30;99.90
26691;DHT22;14307;51.718;8.938;2023-02-19T14:33:51;8.00;99.90
26691;DHT22;14307;51.718;8.938;2023-02-19T14:36:45;8.00;99.90
26691;DHT22;14307;51.718;8.938;2023-02-19T14:39:46;8.00;99.90
26691;DHT22;14307;51.718;8.938;2023-02-19T14:42:21;8.00;99.90
26691;DHT22;14307;51.718;8.938;2023-02-19T14:44:56;7.90;99.90
26691;DHT22;14307;51.718;8.938;2023-02-19T14:47:26;7.80;99.90
26691;DHT22;14307;51.718;8.938;2023-02-19T14:49:59;7.80;99.90
26691;DHT22;14307;51.718;8.938;2023-02-19T14:52:36;7.70;99.90
26691;DHT22;14307;51.718;8.938;2023-02-19T14:57:47;7.80;99.90
26691;DHT22;14307;51.718;8.938;2023-02-19T15:00:22;7.80;99.90
26691;DHT22;14307;51.718;8.938;2023-02-19T15:02:51;7.70;99.90
26691;DHT22;14307;51.718;8.938;2023-02-19T15:05:23;7.70;99.90
26691;DHT22;14307;51.718;8.938;2023-02-19T15:07:52;7.70;99.90
26691;DHT22;14307;51.718;8.938;2023-02-19T15:10:20;7.80;99.90
26691;DHT22;14307;51.718;8.938;2023-02-19T15:12:50;7.80;99.90
26691;DHT22;14307;51.718;8.938;2023-02-19T15:15:23;7.60;99.90
26691;DHT22;14307;51.718;8.938;2023-02-19T15:17:51;7.50;99.90
26691;DHT22;14307;51.718;8.938;2023-02-19T15:20:23;7.40;99.90
26691;DHT22;14307;51.718;8.938;2023-02-19T15:22:51;7.30;99.90
26691;DHT22;14307;51.718;8.938;2023-02-19T15:25:21;7.30;99.90
26691;DHT22;14307;51.718;8.938;2023-02-19T15:27:48;7.30;99.90
26691;DHT22;14307;51.718;8.938;2023-02-19T15:30:22;7.40;99.90
26691;DHT22;14307;51.718;8.938;2023-02-19T15:32:57;7.20;99.90
26691;DHT22;14307;51.718;8.938;2023-02-19T15:35:28;7.20;99.90
26691;DHT22;14307;51.718;8.938;2023-02-19T15:37:55;7.30;99.90
26691;DHT22;14307;51.718;8.938;2023-02-19T15:40:29;7.20;99.90
26691;DHT22;14307;51.718;8.938;2023-02-19T15:42:58;7.40;99.90
26691;DHT22;14307;51.718;8.938;2023-02-19T15:45:39;7.30;99.90
26691;DHT22;14307;51.718;8.938;2023-02-19T15:48:20;7.20;99.90
26691;DHT22;14307;51.718;8.938;2023-02-19T15:50:56;7.00;99.90
26691;DHT22;14307;51.718;8.938;2023-02-19T15:53:29;7.10;99.90
26691;DHT22;14307;51.718;8.938;2023-02-19T15:58:51;6.90;99.90
26691;DHT22;14307;51.718;8.938;2023-02-19T16:01:40;6.80;99.90
26691;DHT22;14307;51.718;8.938;2023-02-19T16:04:13;6.80;99.90
26691;DHT22;14307;51.718;8.938;2023-02-19T16:06:52;6.80;99.90
26691;DHT22;14307;51.718;8.938;2023-02-19T16:09:26;6.80;99.90
26691;DHT22;14307;51.718;8.938;2023-02-19T16:11:55;6.70;99.90
26691;DHT22;14307;51.718;8.938;2023-02-19T16:16:57;6.70;99.90
26691;DHT22;14307;51.718;8.938;2023-02-19T16:19:26;6.80;99.90
26691;DHT22;14307;51.718;8.938;2023-02-19T16:21:54;6.90;99.90
26691;DHT22;14307;51.718;8.938;2023-02-19T16:24:31;6.80;99.90
26691;DHT22;14307;51.718;8.938;2023-02-19T16:27:00;6.80;99.90
26691;DHT22;14307;51.718;8.938;2023-02-19T16:29:30;6.80;99.90
26691;DHT22;14307;51.718;8.938;2023-02-19T16:32:02;6.80;99.90
26691;DHT22;14307;51.718;8.938;2023-02-19T16:34:41;6.80;99.90
26691;DHT22;14307;51.718;8.938;2023-02-19T16:37:40;6.80;99.90
26691;DHT22;14307;51.718;8.938;2023-02-19T16:40:52;6.80;99.90
26691;DHT22;14307;51.718;8.938;2023-02-19T16:43:40;6.70;99.90
26691;DHT22;14307;51.718;8.938;2023-02-19T16:46:09;6.60;99.90
26691;DHT22;14307;51.718;8.938;2023-02-19T16:48:37;6.70;99.90
26691;DHT22;14307;51.718;8.938;2023-02-19T16:51:06;6.70;99.90
26691;DHT22;14307;51.718;8.938;2023-02-19T16:53:33;6.70;99.90
26691;DHT22;14307;51.718;8.938;2023-02-19T16:55:59;6.70;99.90
26691;DHT22;14307;51.718;8.938;2023-02-19T16:58:26;6.70;99.90
26691;DHT22;14307;51.718;8.938;2023-02-19T17:00:53;6.60;99.90
26691;DHT22;14307;51.718;8.938;2023-02-19T17:03:21;6.50;99.90
26691;DHT22;14307;51.718;8.938;2023-02-19T17:05:49;6.50;99.90
26691;DHT22;14307;51.718;8.938;2023-02-19T17:08:34;6.40;99.90
26691;DHT22;14307;51.718;8.938;2023-02-19T17:11:04;6.60;99.90
26691;DHT22;14307;51.718;8.938;2023-02-19T17:13:32;6.60;99.90
26691;DHT22;14307;51.718;8.938;2023-02-19T17:15:59;6.70;99.90
26691;DHT22;14307;51.718;8.938;2023-02-19T17:18:26;6.70;99.90
26691;DHT22;14307;51.718;8.938;2023-02-19T17:21:32;6.70;99.90
26691;DHT22;14307;51.718;8.938;2023-02-19T17:23:51;6.60;99.90
26691;DHT22;14307;51.718;8.938;2023-02-19T17:26:25;6.60;99.90
26691;DHT22;14307;51.718;8.938;2023-02-19T17:28:51;6.60;99.90
26691;DHT22;14307;51.718;8.938;2023-02-19T17:31:18;6.50;99.90
26691;DHT22;14307;51.718;8.938;2023-02-19T17:33:45;6.60;99.90
26691;DHT22;14307;51.718;8.938;2023-02-19T17:36:20;6.60;99.90
26691;DHT22;14307;51.718;8.938;2023-02-19T17:38:47;6.60;99.90
26691;DHT22;14307;51.718;8.938;2023-02-19T17:41:14;6.60;99.90
26691;DHT22;14307;51.718;8.938;2023-02-19T17:43:41;6.60;99.90
26691;DHT22;14307;51.718;8.938;2023-02-19T17:46:16;6.50;99.90
26691;DHT22;14307;51.718;8.938;2023-02-19T17:48:43;6.50;99.90
26691;DHT22;14307;51.718;8.938;2023-02-19T17:51:10;6.50;99.90
26691;DHT22;14307;51.718;8.938;2023-02-19T17:53:37;6.50;99.90
26691;DHT22;14307;51.718;8.938;2023-02-19T17:56:04;6.30;99.90
26691;DHT22;14307;51.718;8.938;2023-02-19T17:58:31;6.30;99.90
26691;DHT22;14307;51.718;8.938;2023-02-19T18:00:58;6.30;99.90
26691;DHT22;14307;51.718;8.938;2023-02-19T18:03:24;6.30;99.90
26691;DHT22;14307;51.718;8.938;2023-02-19T18:05:51;6.40;99.90
26691;DHT22;14307;51.718;8.938;2023-02-19T18:08:18;6.40;99.90
26691;DHT22;14307;51.718;8.938;2023-02-19T18:10:44;6.30;99.90
26691;DHT22;14307;51.718;8.938;2023-02-19T18:13:11;6.20;99.90
26691;DHT22;14307;51.718;8.938;2023-02-19T18:15:38;6.20;99.90
26691;DHT22;14307;51.718;8.938;2023-02-19T18:18:05;6.20;99.90
26691;DHT22;14307;51.718;8.938;2023-02-19T18:20:31;6.30;99.90
26691;DHT22;14307;51.718;8.938;2023-02-19T18:22:58;6.30;99.90
26691;DHT22;14307;51.718;8.938;2023-02-19T18:25:25;6.20;99.90
26691;DHT22;14307;51.718;8.938;2023-02-19T18:27:52;6.20;99.90
26691;DHT22;14307;51.718;8.938;2023-02-19T18:30:20;6.20;99.90
26691;DHT22;14307;51.718;8.938;2023-02-19T18:32:48;6.10;99.90
26691;DHT22;14307;51.718;8.938;2023-02-19T18:35:16;6.10;99.90
26691;DHT22;14307;51.718;8.938;2023-02-19T18:37:43;6.10;99.90
26691;DHT22;14307;51.718;8.938;2023-02-19T18:40:11;6.10;99.90
26691;DHT22;14307;51.718;8.938;2023-02-19T18:42:38;6.10;99.90